x

Buoy B01 - Western Maine Shelf (44030) Wave Buoy

4:04 - Tue 28th Feb 2017 All times are EST. -5 hours from GMT.

  • Sig Wave height 2.6ft
  • Peak Period 5s
  • Wind
    9mph, 11mph gusts
  • Sea Temp 40°f
  • Aire Temp 40°f
  • Sea Pressure 1028.2mb
  • Buoy B01 - Western Maine Shelf
  • Buoy B01 - Western Maine Shelf

More Historic Weather Station data

Upgrade to MSW Pro to gain access to the past 30 days of data for over 8000 Wavebouys and Weather Stations around the globe.

Join Pro

Comparision Forecast

View Surf forecast
   
mar 02/28 4:04 2.5ft 5s 9 11 mph 1028.2mb 40f 40f
3:04 3.5ft 5s 11 13 mph 1027.7mb 40f 40f
2:04 3.5ft 5s 11 13 mph 1027.2mb 40f 41f
1:04 3.5ft 6s 11 13 mph 1026.9mb 40f 41f
12:04 4ft 6s 13 16 mph 1026.8mb 40f 42f
lun 02/27 11:04 4ft 5s 16 18 mph 1026mb 40f 42f
10:04 4.5ft 5s 18 20 mph 1026.3mb 40f 43f
9:04 2.5ft 5s 16 18 mph 1026.3mb 40f 44f
8:04 3ft 11s 11 13 mph 1025.7mb 40f 44f
7:04 3ft 11s 13
mph
1025.2mb 40f 44f
6:04 3ft 5s 9
mph
1024.4mb 40f 45f
5:04 3.5ft 5s 11 16 mph 1023.1mb 40f 44f
4:04 3.5ft 5s 18 20 mph 1022.6mb 40f 46f
3:04 3ft 5s 16 18 mph 1022.6mb 40f 47f
2:04 2.5ft 4s 16 22 mph 1022.3mb 40f 45f
1:04 3.5ft 11s 13 18 mph 1022.8mb 40f 44f
12:04 3.5ft 5s 13 22 mph 1023.9mb 40f 42f
11:04 3.5ft 5s 13 18 mph 1024.5mb 40f 41f
10:04 3.5ft 5s 18 22 mph 1025mb 40f 38f
9:04 4.5ft 11s 22 27 mph 1024.7mb 40f 36f
8:04 3.5ft 4s 22 25 mph 1024.1mb 40f 35f
7:04 4.5ft 11s 22 27 mph 1024.1mb 40f 34f
6:04 4.5ft 11s 22 27 mph 1023.9mb 40f 34f
5:04 4.5ft 11s 22 27 mph 1023.4mb 40f 35f
4:04 3.5ft 11s 18 20 mph 1022.9mb 40f 34f
3:04 3.5ft 11s 20 25 mph 1022.7mb 40f 34f
2:04 3.5ft 11s 18 22 mph 1022.2mb 40f 35f
1:04 2.5ft 11s 16 20 mph 1021.6mb 40f 34f
12:04 2.5ft 11s 16 18 mph 1020.6mb 40f 34f
dom 02/26 11:04 3.5ft 11s 13 16 mph 1020.1mb 40f 34f
10:04 3.5ft 11s 13 18 mph 1019.2mb 40f 34f
9:04 3.5ft 11s 18 22 mph 1018.7mb 40f 35f
8:04 2.5ft 3s 16 20 mph 1017.1mb 40f 36f
7:04 5ft 11s 22 27 mph 1015.8mb 40f 36f
6:04 5ft 11s 22 27 mph 1014.2mb 40f 37f
5:04 5ft 11s 25 31 mph 1012.7mb 40f 38f
4:04 5ft 11s 25 31 mph 1010.9mb 40f 40f
3:04 4.5ft 11s 22 29 mph 1009.7mb 40f 40f
2:04 5ft 11s 20 25 mph 1008.9mb 40f 40f
1:04 5ft 11s 22 27 mph 1007.9mb 40f 39f
12:04  -   -  25 31 mph 1007.5mb 41f 38f
11:04 3.5ft 4s 27 34 mph 1007.1mb 41f 38f
10:04 3.5ft 4s 27 31 mph 1006.4mb 41f 38f
9:04 3.5ft 4s 27 31 mph 1005.7mb 41f 38f
8:04  -   -  25 34 mph 1004.6mb 41f 38f
7:04 4ft 11s 25 29 mph 1003.4mb 41f 39f
6:04 2.5ft 3s 22 27 mph 1002.3mb 41f 40f
5:04  -   -  22 29 mph 1001.1mb 41f 40f
4:04 4ft 11s 25 31 mph 999.5mb 40f 41f
3:04 3.5ft 3s 22 29 mph 997.4mb 41f 42f
2:04 2.5ft 3s 25 27 mph 996.2mb 41f 43f
1:04 2.5ft 5s 20 25 mph 995.6mb 40f 44f
12:04 2.5ft 4s 20 27 mph 996.4mb 40f 46f
sáb 02/25 11:04 2.5ft 4s 11 13 mph 996.7mb 40f 43f
10:04 2.5ft 4s 13 16 mph 996.2mb 40f 44f
9:04 2.5ft 4s 9 11 mph 997.2mb 40f 43f
8:04 2.5ft 4s 11 13 mph 998.7mb 40f 44f
7:04 3.5ft 4s 13 16 mph 999.8mb 40f 45f
6:04 3.5ft 5s 16 18 mph 1000.3mb 41f 45f
5:04 4.5ft 11s 20 25 mph 1001.3mb 41f 45f
4:04 2.5ft 5s 16 20 mph 1003.3mb 41f 45f
3:04 3ft 11s 13 16 mph 1004.4mb 41f 45f
2:04 3.5ft 11s 7 9 mph 1005.5mb 41f 45f
1:04 2.5ft 4s 13 16 mph 1006.1mb 41f 45f
12:04 3.5ft 11s 9 11 mph 1007.3mb 41f 45f
11:04 3ft 11s 4
mph
1008.6mb 40f 42f
10:04 2.5ft 4s 7 11 mph 1009.5mb 40f 43f
9:04 3ft 4s 9 13 mph 1010.1mb 40f 43f
8:04 2.5ft 5s 9 11 mph 1010.3mb 40f 43f
vie 02/24 8:04 4.5ft 11s 20 22 mph 1010.3mb 40f 47f
7:04 3.5ft 5s 18 22 mph 1010.4mb 40f 47f
6:04 4.5ft 4s 20 22 mph 1010.1mb 40f 47f
5:04 3.5ft 11s 9 11 mph 1010.1mb 41f 46f
4:04 3.5ft 11s 2 4 mph 1010.2mb 41f 47f
3:04 3.5ft 11s  -  2 mph 1010.6mb 41f 48f
2:04 4ft 11s 4 7 mph 1011.1mb 40f 44f
1:04 4.5ft 11s 2 4 mph 1012mb 41f 44f
12:04 3.5ft 11s 7
mph
1012.5mb 41f 44f
11:04 3.5ft 11s 9 11 mph 1012.8mb 40f 44f